Time;durP1;ratioP1;P1;durP2;ratioP2;P2;SDS_P1;SDS_P2;PMS_P1;PMS_P2;Temp;Humidity;BMP_temperature;BMP_pressure;BME280_temperature;BME280_humidity;BME280_pressure;Samples;Min_cycle;Max_cycle;Signal;HPM_P1;HPM_P2
2021/06/23 00:01:17;;;;;;;43.45;24.70;;;;;;;;;;5088792;28;20036;-77
2021/06/23 00:03:45;;;;;;;46.35;24.70;;;;;;;;;;5089523;28;20105;-77
2021/06/23 00:06:11;;;;;;;44.25;24.80;;;;;;;;;;5092712;28;20063;-76
2021/06/23 00:08:37;;;;;;;46.70;25.92;;;;;;;;;;5089320;28;20040;-77
2021/06/23 00:11:04;;;;;;;43.75;25.63;;;;;;;;;;5088862;28;20414;-77
2021/06/23 00:13:35;;;;;;;46.47;27.40;;;;;;;;;;5088710;28;20071;-76
2021/06/23 00:16:05;;;;;;;44.97;26.60;;;;;;;;;;5085986;28;20094;-77
2021/06/23 00:18:31;;;;;;;48.85;27.23;;;;;;;;;;5090647;28;20095;-76
2021/06/23 00:20:58;;;;;;;48.03;26.75;;;;;;;;;;5091233;28;20050;-77
2021/06/23 00:23:24;;;;;;;55.42;26.33;;;;;;;;;;5088607;28;20059;-77
2021/06/23 00:25:51;;;;;;;48.55;27.45;;;;;;;;;;5088741;28;20056;-76
2021/06/23 00:28:17;;;;;;;49.28;28.60;;;;;;;;;;5088535;28;20044;-77
2021/06/23 00:30:44;;;;;;;46.13;26.33;;;;;;;;;;5087566;28;20044;-77
2021/06/23 00:33:17;;;;;;;47.60;26.77;;;;;;;;;;5092381;28;20051;-76
2021/06/23 00:35:43;;;;;;;51.97;27.08;;;;;;;;;;5090368;28;20121;-76
2021/06/23 00:38:09;;;;;;;47.78;26.73;;;;;;;;;;5088377;28;20050;-76
2021/06/23 00:40:36;;;;;;;51.97;27.50;;;;;;;;;;5085404;28;20048;-76
2021/06/23 00:43:03;;;;;;;53.22;25.42;;;;;;;;;;5088633;28;20533;-74
2021/06/23 00:45:30;;;;;;;45.63;27.13;;;;;;;;;;5089288;28;20097;-77
2021/06/23 00:47:57;;;;;;;42.17;26.05;;;;;;;;;;5090684;28;20055;-76
2021/06/23 00:50:25;;;;;;;42.63;26.00;;;;;;;;;;5085281;28;20052;-76
2021/06/23 00:53:16;;;;;;;40.67;24.88;;;;;;;;;;5082507;28;20114;-76
2021/06/23 00:55:43;;;;;;;46.40;25.27;;;;;;;;;;5085307;28;20048;-76
2021/06/23 00:58:12;;;;;;;43.50;25.30;;;;;;;;;;5085773;28;20044;-76
2021/06/23 01:00:39;;;;;;;47.22;25.35;;;;;;;;;;5086559;28;20093;-76
2021/06/23 01:03:07;;;;;;;44.08;24.30;;;;;;;;;;5090200;28;20185;-77
2021/06/23 01:05:36;;;;;;;43.00;26.17;;;;;;;;;;5085217;28;20044;-77
2021/06/23 01:08:08;;;;;;;50.65;25.88;;;;;;;;;;5087640;28;20083;-77
2021/06/23 01:10:35;;;;;;;43.25;24.75;;;;;;;;;;5087644;28;20048;-76
2021/06/23 01:13:09;;;;;;;40.33;24.75;;;;;;;;;;5088301;28;20102;-77
2021/06/23 01:15:39;;;;;;;42.45;25.67;;;;;;;;;;5089213;28;20046;-76
2021/06/23 01:18:07;;;;;;;45.70;26.02;;;;;;;;;;5091392;28;20051;-77
2021/06/23 01:20:40;;;;;;;37.92;22.98;;;;;;;;;;5084885;28;20064;-76
2021/06/23 01:23:07;;;;;;;39.45;24.33;;;;;;;;;;5085551;28;20071;-77
2021/06/23 01:25:33;;;;;;;42.78;24.13;;;;;;;;;;5088315;28;20044;-75
2021/06/23 01:28:00;;;;;;;39.40;23.98;;;;;;;;;;5087816;28;20036;-77
2021/06/23 01:30:29;;;;;;;47.20;26.05;;;;;;;;;;5089175;28;20080;-77
2021/06/23 01:33:06;;;;;;;45.53;24.77;;;;;;;;;;5091947;28;20490;-77
2021/06/23 01:35:33;;;;;;;43.95;25.25;;;;;;;;;;5068973;28;20064;-77
2021/06/23 01:38:04;;;;;;;48.38;25.50;;;;;;;;;;5088505;28;20047;-77
2021/06/23 01:40:30;;;;;;;47.28;26.13;;;;;;;;;;5088440;28;20446;-76
2021/06/23 01:42:58;;;;;;;44.33;25.17;;;;;;;;;;5088325;28;20048;-77
2021/06/23 01:45:24;;;;;;;50.45;26.85;;;;;;;;;;5093463;28;20051;-77
2021/06/23 01:47:52;;;;;;;41.47;22.73;;;;;;;;;;5092629;28;20044;-76
2021/06/23 01:50:21;;;;;;;39.00;24.48;;;;;;;;;;5089385;28;20445;-77
2021/06/23 01:52:53;;;;;;;45.53;25.00;;;;;;;;;;5091891;28;20612;-77
2021/06/23 01:55:30;;;;;;;40.15;24.27;;;;;;;;;;5088997;28;20067;-75
2021/06/23 01:58:04;;;;;;;40.78;23.83;;;;;;;;;;5088962;28;20052;-76
2021/06/23 02:00:40;;;;;;;38.67;23.67;;;;;;;;;;5091980;28;20094;-77
2021/06/23 02:03:30;;;;;;;42.33;24.83;;;;;;;;;;5095599;28;20056;-76
2021/06/23 02:06:04;;;;;;;44.28;24.83;;;;;;;;;;5000138;28;20097;-75
2021/06/23 02:08:39;;;;;;;43.80;24.05;;;;;;;;;;5000518;28;20149;-76
2021/06/23 02:11:14;;;;;;;38.63;23.88;;;;;;;;;;4997110;28;20097;-76
2021/06/23 02:14:07;;;;;;;44.95;24.27;;;;;;;;;;5003448;28;20050;-75
2021/06/23 02:16:56;;;;;;;45.95;25.17;;;;;;;;;;5013868;28;20080;-76
2021/06/23 02:19:26;;;;;;;43.03;23.98;;;;;;;;;;5013803;28;20045;-76
2021/06/23 02:22:14;;;;;;;43.75;26.15;;;;;;;;;;5013511;28;20500;-74
2021/06/23 02:24:45;;;;;;;45.95;25.08;;;;;;;;;;4993918;28;20054;-76
2021/06/23 02:27:24;;;;;;;44.80;26.42;;;;;;;;;;5014307;28;20201;-76
2021/06/23 02:29:52;;;;;;;48.58;25.02;;;;;;;;;;5001032;28;20421;-76
2021/06/23 02:32:23;;;;;;;43.70;24.70;;;;;;;;;;5010684;28;20485;-76
2021/06/23 02:34:54;;;;;;;43.83;23.08;;;;;;;;;;4995581;28;20587;-76
2021/06/23 02:37:30;;;;;;;41.20;24.95;;;;;;;;;;5000137;28;20077;-76
2021/06/23 02:39:57;;;;;;;45.35;24.40;;;;;;;;;;4997751;28;20631;-75
2021/06/23 02:42:24;;;;;;;50.20;27.40;;;;;;;;;;5032857;28;20060;-76
2021/06/23 02:44:51;;;;;;;45.88;28.45;;;;;;;;;;5092483;28;20048;-75
2021/06/23 02:47:19;;;;;;;49.75;26.70;;;;;;;;;;5088127;28;20063;-77
2021/06/23 02:50:00;;;;;;;43.92;25.70;;;;;;;;;;5088079;28;20040;-76
2021/06/23 02:52:27;;;;;;;48.78;28.75;;;;;;;;;;5087292;28;20060;-76
2021/06/23 02:54:53;;;;;;;47.75;27.95;;;;;;;;;;5090776;28;20045;-76
2021/06/23 02:57:32;;;;;;;44.72;26.35;;;;;;;;;;5091314;28;20094;-75
2021/06/23 02:59:59;;;;;;;47.90;27.70;;;;;;;;;;5090882;28;20548;-76
2021/06/23 03:02:25;;;;;;;59.13;29.77;;;;;;;;;;5087702;28;20070;-76
2021/06/23 03:04:52;;;;;;;46.75;28.60;;;;;;;;;;5087646;28;20058;-76
2021/06/23 03:07:23;;;;;;;48.67;28.98;;;;;;;;;;5090442;28;20062;-76
2021/06/23 03:10:06;;;;;;;47.25;27.55;;;;;;;;;;5087641;28;20102;-76
2021/06/23 03:12:51;;;;;;;51.63;29.17;;;;;;;;;;5060812;28;20506;-76
2021/06/23 03:15:36;;;;;;;55.70;29.08;;;;;;;;;;5090945;28;20136;-77
2021/06/23 03:18:11;;;;;;;51.22;27.13;;;;;;;;;;5088527;28;20059;-76
2021/06/23 03:20:39;;;;;;;57.83;30.95;;;;;;;;;;5087939;28;20763;-76
2021/06/23 03:23:05;;;;;;;54.90;29.08;;;;;;;;;;5089839;28;20040;-77
2021/06/23 03:25:32;;;;;;;45.95;28.40;;;;;;;;;;5086602;28;20099;-77
2021/06/23 03:27:59;;;;;;;49.22;28.67;;;;;;;;;;5089929;28;20083;-77
2021/06/23 03:30:27;;;;;;;53.28;29.10;;;;;;;;;;5091883;28;20052;-76
2021/06/23 03:32:55;;;;;;;45.90;26.88;;;;;;;;;;5088456;28;20055;-76
2021/06/23 03:35:22;;;;;;;53.38;28.05;;;;;;;;;;5089835;28;20068;-77
2021/06/23 03:37:52;;;;;;;44.13;28.42;;;;;;;;;;5090132;28;20048;-78
2021/06/23 03:40:20;;;;;;;47.03;28.88;;;;;;;;;;5089731;28;20468;-77
2021/06/23 03:42:47;;;;;;;48.45;28.98;;;;;;;;;;5087780;28;20568;-76
2021/06/23 03:45:14;;;;;;;49.90;27.10;;;;;;;;;;5093116;28;20044;-77
2021/06/23 03:47:41;;;;;;;52.03;29.55;;;;;;;;;;5085845;28;20445;-77
2021/06/23 03:50:13;;;;;;;47.22;29.17;;;;;;;;;;5086809;28;20051;-76
2021/06/23 03:52:40;;;;;;;47.50;29.83;;;;;;;;;;5086289;28;20123;-77
2021/06/23 03:55:19;;;;;;;47.90;29.17;;;;;;;;;;5087138;28;20045;-77
2021/06/23 03:57:50;;;;;;;46.85;29.45;;;;;;;;;;5073370;28;20696;-76
2021/06/23 04:00:21;;;;;;;51.47;29.30;;;;;;;;;;5091349;28;20075;-76
2021/06/23 04:02:47;;;;;;;45.30;27.80;;;;;;;;;;5092572;28;20066;-76
2021/06/23 04:05:18;;;;;;;47.25;29.42;;;;;;;;;;5085743;28;20048;-76
2021/06/23 04:07:45;;;;;;;46.65;29.02;;;;;;;;;;5086397;28;20117;-76
2021/06/23 04:10:12;;;;;;;51.85;30.67;;;;;;;;;;5089056;28;20561;-77
2021/06/23 04:12:39;;;;;;;51.53;30.10;;;;;;;;;;5090162;28;20044;-77
2021/06/23 04:15:06;;;;;;;47.47;29.55;;;;;;;;;;5092972;28;20040;-77
2021/06/23 04:17:33;;;;;;;44.38;30.70;;;;;;;;;;5086222;28;20076;-76
2021/06/23 04:20:00;;;;;;;49.22;31.33;;;;;;;;;;5086664;28;20044;-77
2021/06/23 04:22:43;;;;;;;54.47;32.13;;;;;;;;;;5067852;28;20059;-77
2021/06/23 04:25:13;;;;;;;56.20;34.17;;;;;;;;;;5073946;28;20078;-77
2021/06/23 04:27:40;;;;;;;52.78;33.10;;;;;;;;;;5091059;28;20059;-77
2021/06/23 04:30:08;;;;;;;58.17;34.08;;;;;;;;;;5075240;28;20040;-77
2021/06/23 04:32:35;;;;;;;65.68;35.72;;;;;;;;;;5085817;28;20044;-76
2021/06/23 04:35:13;;;;;;;59.20;34.42;;;;;;;;;;5086381;28;20078;-76
2021/06/23 04:37:42;;;;;;;62.78;33.40;;;;;;;;;;5086294;28;20101;-76
2021/06/23 04:40:10;;;;;;;57.83;33.10;;;;;;;;;;5086180;28;20051;-77
2021/06/23 04:42:38;;;;;;;65.97;35.03;;;;;;;;;;5088601;28;20072;-77
2021/06/23 04:45:09;;;;;;;62.13;34.05;;;;;;;;;;5091480;28;20040;-77
2021/06/23 04:47:41;;;;;;;57.50;32.90;;;;;;;;;;5086930;28;20055;-77
2021/06/23 04:50:08;;;;;;;61.83;34.22;;;;;;;;;;5088572;28;20118;-76
2021/06/23 04:52:53;;;;;;;62.70;33.88;;;;;;;;;;5085648;28;20059;-76
2021/06/23 04:55:19;;;;;;;58.47;33.10;;;;;;;;;;5085935;28;20403;-76
2021/06/23 04:57:49;;;;;;;53.05;31.42;;;;;;;;;;5088605;28;20050;-76
2021/06/23 05:00:15;;;;;;;51.47;31.08;;;;;;;;;;5088615;28;20068;-76
2021/06/23 05:02:42;;;;;;;55.20;31.85;;;;;;;;;;5084682;28;20101;-77
2021/06/23 05:05:08;;;;;;;65.13;33.28;;;;;;;;;;5085866;28;20087;-77
2021/06/23 05:07:35;;;;;;;66.25;35.97;;;;;;;;;;5088430;28;20079;-81
2021/06/23 05:10:01;;;;;;;61.17;34.88;;;;;;;;;;5089630;28;20415;-78
2021/06/23 05:12:30;;;;;;;65.18;34.65;;;;;;;;;;5091233;28;20133;-78
2021/06/23 05:14:57;;;;;;;60.22;35.22;;;;;;;;;;5091079;28;20048;-77
2021/06/23 05:17:24;;;;;;;62.97;34.92;;;;;;;;;;5092608;28;20048;-77
2021/06/23 05:19:51;;;;;;;64.63;35.58;;;;;;;;;;5090997;28;20567;-77
2021/06/23 05:22:17;;;;;;;57.25;32.05;;;;;;;;;;5081453;28;20108;-78
2021/06/23 05:24:45;;;;;;;62.58;35.25;;;;;;;;;;5092318;28;20066;-77
2021/06/23 05:27:12;;;;;;;60.05;33.15;;;;;;;;;;5092515;28;20052;-77
2021/06/23 05:29:38;;;;;;;74.65;34.47;;;;;;;;;;5088845;28;20415;-78
2021/06/23 05:32:05;;;;;;;68.97;33.95;;;;;;;;;;5086704;28;20048;-78
2021/06/23 05:34:32;;;;;;;55.08;31.60;;;;;;;;;;5077798;28;20148;-77
2021/06/23 05:36:59;;;;;;;56.35;32.65;;;;;;;;;;5059803;28;20075;-78
2021/06/23 05:39:25;;;;;;;48.72;30.50;;;;;;;;;;5072855;28;20055;-78
2021/06/23 05:41:52;;;;;;;53.75;29.88;;;;;;;;;;5087156;28;20059;-79
2021/06/23 05:44:19;;;;;;;51.40;30.02;;;;;;;;;;5080891;28;20095;-78
2021/06/23 05:46:45;;;;;;;57.90;28.75;;;;;;;;;;5080804;28;20380;-77
2021/06/23 05:49:11;;;;;;;54.75;28.98;;;;;;;;;;5089847;28;20056;-77
2021/06/23 05:51:38;;;;;;;46.90;28.60;;;;;;;;;;5085807;28;20052;-78
2021/06/23 05:54:04;;;;;;;48.33;29.45;;;;;;;;;;5088447;28;20056;-78
2021/06/23 05:56:31;;;;;;;43.70;27.05;;;;;;;;;;5087978;28;20376;-77
2021/06/23 05:58:57;;;;;;;49.20;28.70;;;;;;;;;;5076067;28;20067;-78
2021/06/23 06:01:24;;;;;;;45.35;26.92;;;;;;;;;;5089582;28;20419;-77
2021/06/23 06:03:51;;;;;;;42.83;27.05;;;;;;;;;;5083291;28;20165;-75
2021/06/23 06:06:17;;;;;;;48.42;27.30;;;;;;;;;;5084775;28;20049;-76
2021/06/23 06:08:44;;;;;;;41.60;24.65;;;;;;;;;;5080038;28;20133;-77
2021/06/23 06:11:10;;;;;;;41.45;24.88;;;;;;;;;;5084439;28;20111;-77
2021/06/23 06:13:37;;;;;;;44.15;25.45;;;;;;;;;;5082035;28;20087;-77
2021/06/23 06:16:03;;;;;;;43.28;24.10;;;;;;;;;;5086299;28;20089;-77
2021/06/23 06:18:29;;;;;;;40.17;24.92;;;;;;;;;;5084133;28;20068;-77
2021/06/23 06:21:00;;;;;;;41.22;23.85;;;;;;;;;;5086408;28;20098;-76
2021/06/23 06:23:27;;;;;;;40.83;24.10;;;;;;;;;;5085600;28;20048;-76
2021/06/23 06:25:53;;;;;;;37.20;23.70;;;;;;;;;;5085627;28;20080;-77
2021/06/23 06:28:20;;;;;;;35.47;23.77;;;;;;;;;;5088469;28;20098;-78
2021/06/23 06:30:47;;;;;;;36.17;23.95;;;;;;;;;;5085167;28;20043;-78
2021/06/23 06:33:13;;;;;;;39.75;24.20;;;;;;;;;;5092876;28;20047;-77
2021/06/23 06:35:40;;;;;;;38.28;23.23;;;;;;;;;;5087202;28;20495;-79
2021/06/23 06:38:06;;;;;;;35.75;22.30;;;;;;;;;;5086100;28;20040;-79
2021/06/23 06:40:32;;;;;;;34.30;21.50;;;;;;;;;;5087440;28;20640;-81
2021/06/23 06:42:59;;;;;;;37.50;22.25;;;;;;;;;;5080445;28;20075;-77
2021/06/23 06:45:26;;;;;;;34.60;21.60;;;;;;;;;;5085402;28;20079;-78
2021/06/23 06:47:53;;;;;;;31.75;21.55;;;;;;;;;;5084967;28;20412;-81
2021/06/23 06:50:19;;;;;;;31.77;21.77;;;;;;;;;;5080812;28;20510;-82
2021/06/23 06:52:45;;;;;;;27.73;20.33;;;;;;;;;;5078147;28;20053;-81
2021/06/23 06:55:12;;;;;;;29.65;21.00;;;;;;;;;;5089426;28;20044;-80
2021/06/23 06:57:38;;;;;;;29.13;20.65;;;;;;;;;;5073534;28;20466;-80
2021/06/23 07:00:05;;;;;;;30.98;20.70;;;;;;;;;;5093350;28;20123;-85
2021/06/23 07:02:31;;;;;;;33.25;20.60;;;;;;;;;;5086243;28;20050;-78
2021/06/23 07:04:58;;;;;;;31.17;21.25;;;;;;;;;;5084654;28;20049;-83
2021/06/23 07:07:24;;;;;;;32.10;21.45;;;;;;;;;;5078827;28;20061;-80
2021/06/23 07:09:51;;;;;;;31.77;19.98;;;;;;;;;;5074871;28;20408;-81
2021/06/23 07:12:17;;;;;;;29.90;19.42;;;;;;;;;;5076831;28;20057;-81
2021/06/23 07:14:43;;;;;;;28.77;20.48;;;;;;;;;;5063992;28;20036;-80
2021/06/23 07:17:10;;;;;;;29.00;20.17;;;;;;;;;;5067088;28;20420;-82
2021/06/23 07:19:36;;;;;;;32.20;20.10;;;;;;;;;;5078911;28;20048;-82
2021/06/23 07:22:03;;;;;;;26.95;19.77;;;;;;;;;;5079442;28;20040;-83
2021/06/23 07:24:29;;;;;;;27.92;20.48;;;;;;;;;;5092482;28;20044;-82
2021/06/23 07:26:58;;;;;;;31.10;20.77;;;;;;;;;;5093738;28;20079;-81
2021/06/23 07:29:25;;;;;;;30.38;19.40;;;;;;;;;;5089435;28;20056;-81
2021/06/23 07:36:30;;;;;;;26.70;19.77;;;;;;;;;;5089434;28;20075;-81
2021/06/23 07:37:08;;;;;;;26.63;18.48;;;;;;;;;;5091008;28;20039;-81
2021/06/23 07:39:36;;;;;;;25.50;18.30;;;;;;;;;;5089627;28;20056;-80
2021/06/23 07:42:03;;;;;;;22.48;16.77;;;;;;;;;;5106845;28;20064;-81
2021/06/23 07:44:33;;;;;;;31.48;18.90;;;;;;;;;;5089430;28;20060;-79
2021/06/23 07:47:04;;;;;;;26.73;18.48;;;;;;;;;;5089198;28;20525;-80
2021/06/23 07:49:32;;;;;;;24.73;18.15;;;;;;;;;;5089000;28;20513;-81
2021/06/23 08:10:40;;;;;;;;;;;;;;;;;;5054222;28;20082;-78
2021/06/23 08:13:07;;;;;;;28.63;19.08;;;;;;;;;;5052832;28;20394;-78
2021/06/23 08:15:36;;;;;;;28.38;18.70;;;;;;;;;;5050357;28;21224;-80
2021/06/23 08:18:03;;;;;;;27.58;19.13;;;;;;;;;;5065325;28;20068;-80
2021/06/23 08:20:29;;;;;;;25.65;18.45;;;;;;;;;;5053858;28;20541;-81
2021/06/23 08:22:56;;;;;;;27.88;19.05;;;;;;;;;;5043785;28;20041;-80
2021/06/23 08:25:22;;;;;;;27.92;19.75;;;;;;;;;;5050402;28;20088;-81
2021/06/23 08:27:49;;;;;;;30.50;18.40;;;;;;;;;;5053644;28;20575;-81
2021/06/23 08:30:16;;;;;;;28.85;20.85;;;;;;;;;;5048947;28;20049;-78
2021/06/23 08:32:43;;;;;;;30.85;20.55;;;;;;;;;;5053233;28;20103;-81
2021/06/23 08:35:10;;;;;;;26.90;19.55;;;;;;;;;;5053514;28;20570;-79
2021/06/23 08:37:37;;;;;;;32.30;19.23;;;;;;;;;;5035721;28;20554;-78
2021/06/23 08:40:04;;;;;;;28.50;19.50;;;;;;;;;;5051263;28;20084;-77
2021/06/23 08:42:31;;;;;;;25.38;16.35;;;;;;;;;;5065544;28;20427;-76
2021/06/23 08:44:57;;;;;;;23.30;17.95;;;;;;;;;;5068436;28;20118;-76
2021/06/23 08:47:24;;;;;;;25.42;16.95;;;;;;;;;;5085725;28;20495;-78
2021/06/23 08:49:51;;;;;;;24.75;17.85;;;;;;;;;;5088008;28;20047;-76
2021/06/23 08:52:18;;;;;;;31.88;18.10;;;;;;;;;;5089451;28;20127;-74
2021/06/23 08:54:49;;;;;;;25.77;18.05;;;;;;;;;;5088827;28;20482;-74
2021/06/23 08:57:16;;;;;;;27.48;17.08;;;;;;;;;;5087599;28;20048;-79
2021/06/23 08:59:42;;;;;;;25.23;18.23;;;;;;;;;;5088277;28;20048;-78
2021/06/23 09:02:18;;;;;;;28.05;18.60;;;;;;;;;;5088107;28;20411;-75
2021/06/23 09:04:55;;;;;;;27.45;17.17;;;;;;;;;;5087963;28;20039;-76
2021/06/23 09:07:42;;;;;;;21.27;16.38;;;;;;;;;;5088436;28;20071;-76
2021/06/23 09:10:29;;;;;;;24.75;16.17;;;;;;;;;;5088072;28;20181;-79
2021/06/23 09:13:01;;;;;;;26.55;17.83;;;;;;;;;;5063301;28;20076;-77
2021/06/23 09:15:40;;;;;;;28.63;19.55;;;;;;;;;;5090770;28;20380;-77
2021/06/23 09:18:13;;;;;;;30.70;19.92;;;;;;;;;;5091154;28;20048;-77
2021/06/23 09:20:40;;;;;;;24.10;18.53;;;;;;;;;;5088190;28;20044;-76
2021/06/23 09:23:06;;;;;;;26.10;17.08;;;;;;;;;;5087820;28;20044;-75
2021/06/23 09:25:35;;;;;;;22.45;17.05;;;;;;;;;;5087441;28;20075;-78
2021/06/23 09:28:02;;;;;;;21.17;15.82;;;;;;;;;;5088698;28;20040;-76
2021/06/23 09:30:35;;;;;;;23.63;17.30;;;;;;;;;;5090145;28;20048;-77
2021/06/23 09:33:09;;;;;;;22.17;16.08;;;;;;;;;;5083594;28;20048;-75
2021/06/23 09:35:36;;;;;;;25.00;16.48;;;;;;;;;;5087284;28;20172;-78
2021/06/23 09:38:03;;;;;;;23.13;16.45;;;;;;;;;;5076162;28;20520;-77
2021/06/23 09:40:31;;;;;;;23.63;16.58;;;;;;;;;;5086700;28;20127;-79
2021/06/23 09:43:01;;;;;;;20.48;16.50;;;;;;;;;;5088068;28;20053;-78
2021/06/23 09:45:29;;;;;;;18.92;14.38;;;;;;;;;;5090212;28;20120;-77
2021/06/23 09:47:59;;;;;;;23.13;16.42;;;;;;;;;;5088107;28;20064;-77
2021/06/23 09:50:28;;;;;;;18.92;14.70;;;;;;;;;;5087924;28;20090;-75
2021/06/23 09:52:57;;;;;;;19.52;13.50;;;;;;;;;;5084680;28;20538;-77
2021/06/23 09:55:34;;;;;;;20.23;14.38;;;;;;;;;;5084819;28;20039;-78
2021/06/23 09:58:11;;;;;;;21.08;14.00;;;;;;;;;;5088122;28;20045;-77
2021/06/23 10:00:59;;;;;;;17.73;12.82;;;;;;;;;;5089241;28;20170;-75
2021/06/23 10:03:27;;;;;;;17.88;14.77;;;;;;;;;;5090359;28;20502;-74
2021/06/23 10:05:54;;;;;;;18.13;13.27;;;;;;;;;;5089559;28;20499;-76
2021/06/23 10:08:21;;;;;;;18.92;13.30;;;;;;;;;;5088034;28;20052;-76
2021/06/23 10:10:47;;;;;;;17.98;12.40;;;;;;;;;;5091607;28;20063;-73
2021/06/23 10:13:14;;;;;;;16.85;12.05;;;;;;;;;;5091446;28;20040;-78
2021/06/23 10:15:41;;;;;;;15.18;12.77;;;;;;;;;;5092340;28;20049;-78
2021/06/23 10:18:08;;;;;;;17.00;12.35;;;;;;;;;;5094406;28;20121;-78
2021/06/23 10:20:35;;;;;;;16.58;12.38;;;;;;;;;;5091218;28;20044;-74
2021/06/23 10:23:04;;;;;;;19.88;12.20;;;;;;;;;;5091565;28;20075;-77
2021/06/23 10:25:31;;;;;;;17.75;11.98;;;;;;;;;;5091137;28;20471;-76
2021/06/23 10:27:58;;;;;;;17.10;10.93;;;;;;;;;;5091455;28;20110;-76
2021/06/23 10:30:29;;;;;;;13.32;10.18;;;;;;;;;;5093669;28;20058;-77
2021/06/23 10:32:56;;;;;;;15.55;9.75;;;;;;;;;;5092921;28;20067;-66
2021/06/23 10:35:22;;;;;;;13.90;10.80;;;;;;;;;;5084932;28;20036;-66
2021/06/23 10:37:50;;;;;;;14.77;10.45;;;;;;;;;;5091078;28;20040;-65
2021/06/23 10:40:17;;;;;;;30.23;11.43;;;;;;;;;;5090757;28;20083;-67
2021/06/23 10:42:44;;;;;;;12.77;11.13;;;;;;;;;;5075071;28;20082;-67
2021/06/23 10:45:11;;;;;;;22.55;13.02;;;;;;;;;;5094625;28;20446;-66
2021/06/23 10:47:39;;;;;;;20.52;13.23;;;;;;;;;;5090494;28;20051;-66
2021/06/23 10:50:09;;;;;;;20.08;14.32;;;;;;;;;;5086116;28;20075;-67
2021/06/23 10:52:36;;;;;;;14.80;13.07;;;;;;;;;;5090351;28;20060;-66
2021/06/23 10:55:05;;;;;;;15.45;12.48;;;;;;;;;;5090405;28;20431;-65
2021/06/23 10:57:40;;;;;;;13.73;12.13;;;;;;;;;;5092608;28;20123;-67
2021/06/23 11:00:24;;;;;;;18.27;12.35;;;;;;;;;;5094054;28;20040;-66
2021/06/23 11:02:52;;;;;;;13.38;11.60;;;;;;;;;;5093585;28;20073;-66
2021/06/23 11:05:18;;;;;;;15.40;11.98;;;;;;;;;;5090556;28;20080;-66
2021/06/23 11:07:46;;;;;;;14.32;12.38;;;;;;;;;;5089822;28;20051;-67
2021/06/23 11:10:13;;;;;;;14.52;12.20;;;;;;;;;;5088973;28;20040;-68
2021/06/23 11:12:47;;;;;;;15.95;12.38;;;;;;;;;;5085714;28;20048;-67
2021/06/23 11:15:17;;;;;;;16.20;12.20;;;;;;;;;;5087732;28;20039;-65
2021/06/23 11:17:44;;;;;;;17.58;12.65;;;;;;;;;;5090716;28;20051;-65
2021/06/23 11:20:19;;;;;;;17.83;12.48;;;;;;;;;;5085717;28;20047;-66
2021/06/23 11:22:50;;;;;;;15.13;11.85;;;;;;;;;;5084066;28;20048;-66
2021/06/23 11:25:26;;;;;;;16.38;12.68;;;;;;;;;;5090498;28;20047;-67
2021/06/23 11:28:05;;;;;;;14.95;11.05;;;;;;;;;;5089391;28;20576;-66
2021/06/23 11:30:31;;;;;;;13.90;11.98;;;;;;;;;;5090832;28;20046;-66
2021/06/23 11:33:19;;;;;;;15.57;11.95;;;;;;;;;;5088623;28;20052;-68
2021/06/23 11:35:45;;;;;;;15.60;11.73;;;;;;;;;;5092876;28;20048;-66
2021/06/23 11:38:11;;;;;;;17.05;11.73;;;;;;;;;;5078855;28;20568;-67
2021/06/23 11:40:38;;;;;;;15.02;11.35;;;;;;;;;;5089861;28;20105;-68
2021/06/23 11:43:04;;;;;;;15.50;11.45;;;;;;;;;;5089537;28;20044;-67
2021/06/23 11:45:30;;;;;;;14.70;12.02;;;;;;;;;;5091998;28;20179;-67
2021/06/23 11:47:57;;;;;;;16.42;9.65;;;;;;;;;;5091300;28;20430;-67
2021/06/23 11:50:23;;;;;;;17.42;10.70;;;;;;;;;;5089830;28;20048;-65
2021/06/23 11:52:50;;;;;;;12.77;9.80;;;;;;;;;;5076956;28;20071;-66
2021/06/23 11:55:23;;;;;;;11.77;9.70;;;;;;;;;;5089840;28;20089;-66
2021/06/23 11:57:54;;;;;;;11.02;9.80;;;;;;;;;;5084157;28;20098;-67
2021/06/23 12:00:21;;;;;;;12.57;9.68;;;;;;;;;;5092201;28;20051;-67
2021/06/23 12:02:48;;;;;;;13.88;9.32;;;;;;;;;;5092113;28;20064;-65
2021/06/23 12:05:14;;;;;;;11.88;8.77;;;;;;;;;;5089266;28;20043;-67
2021/06/23 12:07:41;;;;;;;12.85;8.63;;;;;;;;;;5088727;28;20040;-65
2021/06/23 12:10:07;;;;;;;11.43;8.75;;;;;;;;;;5089227;28;20470;-66
2021/06/23 12:12:34;;;;;;;10.25;8.27;;;;;;;;;;5090603;28;20052;-67
2021/06/23 12:15:01;;;;;;;12.73;9.10;;;;;;;;;;5091376;28;20047;-68
2021/06/23 12:17:27;;;;;;;12.07;9.73;;;;;;;;;;5088702;28;20086;-66
2021/06/23 12:19:54;;;;;;;13.70;9.75;;;;;;;;;;5088971;28;20093;-65
2021/06/23 12:22:23;;;;;;;13.45;10.05;;;;;;;;;;5088618;28;20494;-65
2021/06/23 12:24:51;;;;;;;11.40;9.05;;;;;;;;;;5089994;28;20106;-65
2021/06/23 12:27:17;;;;;;;12.32;9.88;;;;;;;;;;5091883;28;20550;-64
2021/06/23 12:29:43;;;;;;;13.85;9.65;;;;;;;;;;5089437;28;20491;-66
2021/06/23 12:32:10;;;;;;;10.70;8.95;;;;;;;;;;5088992;28;20127;-66
2021/06/23 12:34:36;;;;;;;12.23;9.35;;;;;;;;;;5088694;28;20074;-67
2021/06/23 12:37:03;;;;;;;11.00;9.68;;;;;;;;;;5088826;28;20048;-68
2021/06/23 12:39:29;;;;;;;11.52;8.65;;;;;;;;;;5090986;28;20071;-66
2021/06/23 12:41:56;;;;;;;12.45;9.48;;;;;;;;;;5090577;28;20044;-68
2021/06/23 12:44:22;;;;;;;12.43;10.90;;;;;;;;;;5086377;28;20050;-64
2021/06/23 12:46:48;;;;;;;12.40;9.98;;;;;;;;;;5088704;28;20040;-67
2021/06/23 12:49:15;;;;;;;11.20;10.02;;;;;;;;;;5087748;28;20093;-68
2021/06/23 12:51:41;;;;;;;11.20;10.07;;;;;;;;;;5089177;28;20048;-66
2021/06/23 12:54:09;;;;;;;12.80;9.77;;;;;;;;;;5090121;28;20106;-66
2021/06/23 12:56:37;;;;;;;11.27;9.40;;;;;;;;;;5068556;28;20131;-66
2021/06/23 12:59:04;;;;;;;13.35;9.95;;;;;;;;;;5068487;28;20450;-67
2021/06/23 13:01:30;;;;;;;13.18;10.60;;;;;;;;;;5068560;28;20060;-68
2021/06/23 13:03:56;;;;;;;14.00;9.35;;;;;;;;;;5068675;28;20069;-68
2021/06/23 13:06:23;;;;;;;13.02;10.50;;;;;;;;;;5070454;28;20080;-69
2021/06/23 13:08:49;;;;;;;11.48;10.27;;;;;;;;;;5069356;28;20098;-65
2021/06/23 13:11:16;;;;;;;13.48;10.23;;;;;;;;;;5068095;28;20488;-67
2021/06/23 13:13:42;;;;;;;13.20;10.68;;;;;;;;;;5069952;28;20335;-65
2021/06/23 13:16:16;;;;;;;12.45;10.52;;;;;;;;;;5049501;28;20102;-65
2021/06/23 13:18:43;;;;;;;13.63;10.93;;;;;;;;;;5051638;28;20064;-68
2021/06/23 13:21:10;;;;;;;12.57;10.38;;;;;;;;;;5069944;28;20051;-64
2021/06/23 13:23:36;;;;;;;12.18;10.63;;;;;;;;;;5068322;28;20411;-64
2021/06/23 13:26:03;;;;;;;13.50;10.02;;;;;;;;;;5068410;28;20133;-65
2021/06/23 13:28:29;;;;;;;14.77;11.30;;;;;;;;;;5067819;28;20099;-66
2021/06/23 13:30:56;;;;;;;14.57;10.82;;;;;;;;;;5068189;28;20045;-64
2021/06/23 13:33:22;;;;;;;16.85;10.77;;;;;;;;;;5070281;28;20049;-65
2021/06/23 13:35:48;;;;;;;13.07;10.35;;;;;;;;;;5067997;28;20048;-64
2021/06/23 13:38:15;;;;;;;13.80;10.38;;;;;;;;;;5071617;28;20044;-65
2021/06/23 13:40:41;;;;;;;16.88;9.98;;;;;;;;;;5064659;28;20049;-69
2021/06/23 13:43:08;;;;;;;12.40;9.60;;;;;;;;;;5071839;28;20577;-66
2021/06/23 13:45:34;;;;;;;13.55;10.38;;;;;;;;;;5073457;28;20072;-65
2021/06/23 13:48:03;;;;;;;13.65;10.77;;;;;;;;;;5073384;28;20076;-66
2021/06/23 13:50:29;;;;;;;13.60;9.55;;;;;;;;;;5055816;28;20047;-65
2021/06/23 13:52:55;;;;;;;12.10;9.55;;;;;;;;;;5073226;28;20496;-65
2021/06/23 13:55:25;;;;;;;15.52;9.52;;;;;;;;;;5071717;28;20044;-65
2021/06/23 13:57:56;;;;;;;14.52;10.68;;;;;;;;;;5071540;28;20048;-65
2021/06/23 14:00:23;;;;;;;16.08;11.25;;;;;;;;;;5074022;28;20068;-64
2021/06/23 14:02:50;;;;;;;16.63;11.38;;;;;;;;;;5072715;28;20109;-65
2021/06/23 14:05:16;;;;;;;13.30;10.20;;;;;;;;;;5068346;28;20068;-66
2021/06/23 14:07:43;;;;;;;15.13;11.50;;;;;;;;;;5071670;28;20593;-65
2021/06/23 14:10:10;;;;;;;16.17;10.82;;;;;;;;;;5070139;28;20127;-65
2021/06/23 14:12:36;;;;;;;14.15;10.95;;;;;;;;;;5072480;28;20451;-66
2021/06/23 14:15:04;;;;;;;16.20;11.40;;;;;;;;;;5070206;28;20456;-65
2021/06/23 14:17:30;;;;;;;14.60;11.23;;;;;;;;;;5072032;28;20044;-65
2021/06/23 14:19:57;;;;;;;16.77;11.85;;;;;;;;;;5071084;28;20047;-66
2021/06/23 14:22:24;;;;;;;15.90;11.38;;;;;;;;;;5071297;28;20048;-64
2021/06/23 14:24:50;;;;;;;15.48;11.23;;;;;;;;;;5071143;28;20041;-64
2021/06/23 14:27:17;;;;;;;12.93;11.05;;;;;;;;;;5073427;28;20044;-66
2021/06/23 14:29:43;;;;;;;15.93;10.13;;;;;;;;;;5070708;28;20063;-66
2021/06/23 14:32:10;;;;;;;13.40;10.25;;;;;;;;;;5069799;28;20128;-65
2021/06/23 14:34:36;;;;;;;13.73;10.63;;;;;;;;;;5070921;28;20049;-65
2021/06/23 14:37:03;;;;;;;13.43;10.73;;;;;;;;;;5071324;28;20080;-66
2021/06/23 14:39:29;;;;;;;14.55;10.80;;;;;;;;;;5073208;28;20051;-65
2021/06/23 14:41:55;;;;;;;12.75;10.95;;;;;;;;;;5070770;28;20040;-66
2021/06/23 14:44:22;;;;;;;14.68;10.57;;;;;;;;;;5069043;28;20468;-66
2021/06/23 14:46:48;;;;;;;16.80;10.23;;;;;;;;;;5067150;28;20049;-67
2021/06/23 14:49:15;;;;;;;10.80;9.20;;;;;;;;;;5071329;28;20111;-66